ECISR LEVT-LEMM

Flight info

Callsign ECISR
Flight time N/A
Altitude 7500
Route VFR
Aircraft PIVI/L-V/7000

Departure

Time 2026-05-06 14:28
Airport Vitoria Airport (LEVT)

Arrival

Time N/A
Airport LEMM
Time Latitude Longitude Altitude Speed Heading
2026-05-06 14:15 42.88285 -2.73089 1666 ft 0 kts 306°
2026-05-06 14:16 42.88285 -2.73088 1666 ft 0 kts 306°
2026-05-06 14:18 42.88284 -2.73088 1666 ft 0 kts 306°
2026-05-06 14:20 42.88278 -2.73081 1672 ft 6 kts 99°
2026-05-06 14:21 42.88293 -2.73005 1671 ft 10 kts 82°
2026-05-06 14:21 42.88271 -2.72929 1669 ft 8 kts 132°
2026-05-06 14:21 42.88240 -2.72873 1669 ft 4 kts 124°
2026-05-06 14:21 42.88239 -2.72872 1669 ft 0 kts 124°
2026-05-06 14:22 42.88238 -2.72870 1666 ft 4 kts 128°
2026-05-06 14:22 42.88177 -2.72852 1666 ft 16 kts 220°
2026-05-06 14:22 42.88085 -2.72948 1665 ft 17 kts 216°
2026-05-06 14:23 42.87988 -2.73046 1664 ft 18 kts 222°
2026-05-06 14:23 42.87891 -2.73148 1672 ft 18 kts 211°
2026-05-06 14:23 42.87785 -2.73246 1665 ft 21 kts 208°
2026-05-06 14:23 42.87655 -2.73368 1660 ft 22 kts 218°
2026-05-06 14:24 42.87539 -2.73404 1659 ft 0 kts 198°
2026-05-06 14:24 42.87528 -2.73430 1662 ft 1 kts 236°
2026-05-06 14:24 42.87495 -2.73516 1662 ft 20 kts 232°
2026-05-06 14:24 42.87358 -2.73664 1656 ft 29 kts 216°
2026-05-06 14:25 42.87188 -2.73833 1654 ft 26 kts 217°
2026-05-06 14:25 42.87096 -2.73833 1653 ft 12 kts 127°
2026-05-06 14:25 42.87093 -2.73827 1653 ft 0 kts 126°
2026-05-06 14:26 42.87085 -2.73812 1653 ft 6 kts 128°
2026-05-06 14:26 42.87057 -2.73759 1652 ft 8 kts 115°
2026-05-06 14:27 42.87066 -2.73658 1652 ft 17 kts 44°
2026-05-06 14:27 42.87243 -2.73476 1658 ft 56 kts 39°
2026-05-06 14:27 42.87639 -2.73046 1703 ft 84 kts 37°
2026-05-06 14:27 42.88092 -2.72488 1849 ft 91 kts 45°
2026-05-06 14:28 42.88663 -2.71945 1823 ft 108 kts 32°
2026-05-06 14:28 42.89269 -2.71390 1931 ft 106 kts 30°
2026-05-06 14:28 42.89833 -2.70835 2162 ft 92 kts 47°
2026-05-06 14:28 42.90277 -2.70205 2320 ft 104 kts 45°
2026-05-06 14:29 42.90777 -2.69413 2429 ft 118 kts 48°
2026-05-06 14:29 42.91230 -2.68442 2510 ft 120 kts 70°
2026-05-06 14:29 42.91205 -2.67267 2491 ft 131 kts 107°
2026-05-06 14:29 42.90909 -2.66076 2409 ft 134 kts 107°
2026-05-06 14:30 42.90619 -2.64873 2358 ft 136 kts 107°
2026-05-06 14:30 42.90329 -2.63623 2291 ft 137 kts 106°
2026-05-06 14:30 42.90062 -2.62412 2316 ft 130 kts 105°
2026-05-06 14:30 42.89810 -2.61247 2336 ft 126 kts 104°
2026-05-06 14:31 42.89566 -2.60068 2276 ft 126 kts 104°
2026-05-06 14:31 42.89336 -2.58940 2309 ft 121 kts 104°
2026-05-06 14:31 42.89125 -2.57849 2386 ft 119 kts 103°
2026-05-06 14:31 42.88923 -2.56767 2498 ft 114 kts 102°
2026-05-06 14:32 42.88736 -2.55738 2664 ft 111 kts 101°
2026-05-06 14:32 42.88546 -2.54638 2524 ft 129 kts 101°
2026-05-06 14:32 42.88354 -2.53434 2460 ft 129 kts 100°
2026-05-06 14:32 42.88167 -2.52234 2455 ft 129 kts 100°
2026-05-06 14:33 42.87992 -2.51052 2471 ft 124 kts 100°
2026-05-06 14:33 42.87825 -2.49893 2507 ft 122 kts 98°
2026-05-06 14:33 42.87667 -2.48712 2416 ft 128 kts 99°
2026-05-06 14:33 42.87509 -2.47555 2554 ft 117 kts 101°
2026-05-06 14:34 42.87263 -2.46545 2676 ft 111 kts 110°
2026-05-06 14:34 42.86984 -2.45547 2798 ft 114 kts 108°
2026-05-06 14:34 42.86687 -2.44547 2935 ft 113 kts 110°
2026-05-06 14:34 42.86398 -2.43527 2987 ft 118 kts 108°
2026-05-06 14:35 42.86113 -2.42474 3051 ft 119 kts 106°
2026-05-06 14:35 42.85819 -2.41425 3136 ft 122 kts 107°
2026-05-06 14:35 42.85517 -2.40317 3171 ft 125 kts 105°
2026-05-06 14:35 42.85270 -2.39196 3265 ft 121 kts 89°
2026-05-06 14:36 42.85333 -2.38120 3423 ft 113 kts 75°
2026-05-06 14:36 42.85419 -2.37034 3444 ft 115 kts 72°
2026-05-06 14:36 42.85650 -2.36002 3516 ft 114 kts 62°
2026-05-06 14:36 42.85878 -2.34939 3561 ft 118 kts 69°
2026-05-06 14:37 42.86099 -2.33855 3615 ft 120 kts 65°
2026-05-06 14:37 42.86273 -2.32721 3693 ft 128 kts 78°
2026-05-06 14:37 42.86189 -2.31512 3921 ft 127 kts 97°
2026-05-06 14:37 42.86060 -2.30351 4021 ft 128 kts 82°
2026-05-06 14:38 42.85998 -2.29124 4133 ft 128 kts 92°
2026-05-06 14:38 42.85684 -2.28024 4338 ft 129 kts 118°
2026-05-06 14:38 42.85101 -2.27058 4431 ft 133 kts 129°
2026-05-06 14:38 42.84472 -2.26135 4627 ft 134 kts 130°
2026-05-06 14:39 42.83826 -2.25206 4653 ft 136 kts 128°
2026-05-06 14:39 42.83202 -2.24228 4626 ft 137 kts 125°
2026-05-06 14:39 42.82624 -2.23210 4579 ft 137 kts 124°
2026-05-06 14:39 42.82038 -2.22118 4522 ft 147 kts 122°
2026-05-06 14:40 42.81466 -2.20958 4544 ft 148 kts 122°
2026-05-06 14:40 42.80918 -2.19747 4536 ft 152 kts 118°
2026-05-06 14:40 42.80403 -2.18454 4505 ft 161 kts 111°
2026-05-06 14:40 42.80016 -2.16992 4460 ft 166 kts 103°
2026-05-06 14:41 42.79675 -2.15508 4453 ft 167 kts 103°
2026-05-06 14:41 42.79265 -2.13998 4328 ft 173 kts 107°
2026-05-06 14:41 42.78838 -2.12469 4243 ft 174 kts 108°
2026-05-06 14:41 42.78412 -2.10936 4230 ft 170 kts 108°
2026-05-06 14:42 42.78061 -2.09444 4317 ft 162 kts 101°
2026-05-06 14:42 42.77784 -2.08009 4384 ft 149 kts 99°
2026-05-06 14:42 42.77526 -2.06687 4491 ft 146 kts 101°
2026-05-06 14:42 42.77252 -2.05273 4447 ft 161 kts 99°
2026-05-06 14:43 42.76947 -2.03776 4366 ft 170 kts 101°
2026-05-06 14:43 42.76655 -2.02195 4291 ft 172 kts 97°
2026-05-06 14:43 42.76406 -2.00623 4157 ft 170 kts 99°
2026-05-06 14:43 42.76117 -1.99073 4116 ft 165 kts 102°
2026-05-06 14:44 42.75760 -1.97585 4032 ft 166 kts 102°
2026-05-06 14:44 42.75349 -1.96110 4061 ft 167 kts 107°
2026-05-06 14:44 42.74920 -1.94664 4101 ft 164 kts 107°
2026-05-06 14:45 42.74029 -1.91661 3913 ft 164 kts 106°
2026-05-06 14:45 42.73623 -1.90226 3989 ft 162 kts 108°
2026-05-06 14:45 42.73231 -1.88780 3988 ft 163 kts 104°
2026-05-06 14:45 42.72834 -1.87323 3934 ft 165 kts 103°
2026-05-06 14:46 42.72522 -1.85831 3903 ft 161 kts 102°
2026-05-06 14:46 42.72176 -1.84395 3999 ft 159 kts 108°
2026-05-06 14:46 42.71616 -1.83092 4049 ft 161 kts 120°
2026-05-06 14:46 42.71072 -1.81748 3992 ft 166 kts 114°
2026-05-06 14:47 42.70569 -1.80299 3838 ft 171 kts 108°
2026-05-06 14:47 42.70114 -1.78823 3680 ft 168 kts 107°
2026-05-06 14:47 42.69706 -1.77346 3622 ft 164 kts 104°
2026-05-06 14:47 42.69340 -1.75903 3666 ft 158 kts 105°
2026-05-06 14:48 42.68982 -1.74484 3694 ft 159 kts 104°
2026-05-06 14:48 42.68591 -1.73081 3657 ft 162 kts 110°
2026-05-06 14:48 42.68124 -1.71673 3582 ft 164 kts 108°
2026-05-06 14:48 42.67696 -1.70253 3573 ft 161 kts 107°
2026-05-06 14:49 42.67277 -1.68838 3528 ft 162 kts 106°
2026-05-06 14:49 42.66828 -1.67429 3575 ft 162 kts 115°
2026-05-06 14:49 42.66290 -1.66155 3771 ft 151 kts 114°
2026-05-06 14:49 42.65822 -1.64893 3920 ft 149 kts 111°
2026-05-06 14:50 42.65369 -1.63603 3929 ft 154 kts 111°
2026-05-06 14:50 42.64929 -1.62269 3912 ft 156 kts 108°
2026-05-06 14:50 42.64568 -1.60883 3879 ft 155 kts 99°
2026-05-06 14:50 42.64334 -1.59471 3912 ft 152 kts 95°
2026-05-06 14:51 42.64101 -1.58088 4085 ft 147 kts 97°
2026-05-06 14:51 42.63894 -1.56742 4247 ft 146 kts 96°
2026-05-06 14:51 42.63760 -1.55379 4286 ft 146 kts 89°
2026-05-06 14:51 42.63608 -1.53979 4191 ft 157 kts 96°
2026-05-06 14:52 42.63455 -1.52470 4027 ft 165 kts 92°
2026-05-06 14:52 42.63311 -1.50928 4029 ft 163 kts 91°
2026-05-06 14:52 42.63137 -1.49381 3977 ft 168 kts 99°
2026-05-06 14:52 42.62839 -1.47834 3802 ft 166 kts 103°
2026-05-06 14:53 42.62495 -1.46370 3724 ft 161 kts 104°
2026-05-06 14:53 42.62233 -1.44903 3702 ft 160 kts 96°
2026-05-06 14:53 42.62079 -1.43409 3724 ft 159 kts 94°
2026-05-06 14:53 42.61924 -1.41936 3833 ft 157 kts 93°
2026-05-06 14:54 42.61748 -1.40471 3983 ft 156 kts 95°
2026-05-06 14:54 42.61562 -1.39033 4146 ft 151 kts 95°
2026-05-06 14:54 42.61382 -1.37622 4220 ft 153 kts 95°
2026-05-06 14:54 42.61221 -1.36172 4213 ft 159 kts 95°
2026-05-06 14:55 42.61173 -1.34669 4185 ft 161 kts 80°
2026-05-06 14:55 42.61451 -1.33203 4056 ft 161 kts 59°
2026-05-06 14:55 42.62066 -1.31942 3872 ft 160 kts 44°
2026-05-06 14:55 42.62847 -1.30951 3434 ft 145 kts 26°
2026-05-06 14:56 42.63742 -1.30533 3053 ft 126 kts 13°
2026-05-06 14:56 42.64477 -1.30320 2832 ft 99 kts
2026-05-06 14:56 42.65161 -1.30257 2627 ft 101 kts 357°
2026-05-06 14:56 42.65884 -1.30332 2380 ft 107 kts 350°
2026-05-06 14:57 42.66404 -1.30810 2374 ft 86 kts 294°
2026-05-06 14:57 42.66215 -1.31554 2322 ft 97 kts 224°
2026-05-06 14:57 42.65613 -1.31841 2312 ft 90 kts 185°
2026-05-06 14:57 42.65073 -1.31509 2226 ft 85 kts 126°
2026-05-06 14:58 42.64878 -1.30827 2144 ft 74 kts 92°
2026-05-06 14:58 42.65097 -1.30308 2100 ft 67 kts
2026-05-06 14:58 42.65568 -1.30402 1928 ft 65 kts 349°
2026-05-06 14:58 42.66017 -1.30408 1695 ft 62 kts 355°
2026-05-06 14:59 42.66381 -1.30408 1571 ft 40 kts 354°
2026-05-06 14:59 42.66609 -1.30409 1574 ft 43 kts 357°
2026-05-06 14:59 42.67003 -1.30405 1726 ft 65 kts 353°
2026-05-06 14:59 42.67487 -1.30437 1908 ft 77 kts 359°
2026-05-06 15:00 42.68001 -1.30173 2077 ft 85 kts 48°
2026-05-06 15:00 42.68081 -1.29258 2063 ft 115 kts 104°
2026-05-06 15:00 42.67564 -1.28458 2240 ft 112 kts 146°
2026-05-06 15:00 42.66942 -1.27858 2449 ft 102 kts 143°
2026-05-06 15:01 42.66413 -1.27221 2657 ft 102 kts 129°
2026-05-06 15:01 42.66059 -1.26407 2914 ft 100 kts 106°
2026-05-06 15:01 42.65946 -1.25482 3137 ft 99 kts 87°
2026-05-06 15:01 42.65952 -1.24481 3399 ft 108 kts 80°
2026-05-06 15:02 42.65946 -1.23465 3731 ft 110 kts 89°
2026-05-06 15:02 42.65843 -1.22390 3922 ft 119 kts 92°
2026-05-06 15:02 42.65681 -1.21268 4180 ft 124 kts 101°
2026-05-06 15:02 42.65419 -1.20170 4540 ft 124 kts 106°
2026-05-06 15:03 42.65059 -1.19106 4884 ft 126 kts 115°
2026-05-06 15:03 42.64580 -1.18048 5057 ft 135 kts 118°
2026-05-06 15:03 42.64025 -1.16941 5068 ft 151 kts 121°
2026-05-06 15:03 42.63431 -1.15750 5038 ft 156 kts 121°
2026-05-06 15:04 42.62798 -1.14461 4946 ft 169 kts 121°
2026-05-06 15:04 42.62134 -1.13104 4776 ft 175 kts 122°
2026-05-06 15:04 42.61468 -1.11711 4709 ft 176 kts 119°
2026-05-06 15:04 42.60856 -1.10295 4714 ft 170 kts 116°
2026-05-06 15:05 42.60352 -1.08900 4970 ft 157 kts 109°
2026-05-06 15:05 42.59894 -1.07505 4892 ft 171 kts 113°
2026-05-06 15:05 42.59333 -1.06035 4759 ft 179 kts 115°
2026-05-06 15:05 42.58762 -1.04536 4648 ft 177 kts 116°
2026-05-06 15:06 42.58180 -1.03080 4634 ft 176 kts 116°
2026-05-06 15:06 42.57635 -1.01571 4550 ft 181 kts 112°
2026-05-06 15:06 42.57092 -1.00014 4499 ft 182 kts 115°
2026-05-06 15:06 42.56519 -0.98481 4425 ft 182 kts 115°
2026-05-06 15:07 42.55918 -0.97003 4516 ft 175 kts 114°
2026-05-06 15:07 42.55330 -0.95559 4506 ft 177 kts 115°
2026-05-06 15:07 42.54737 -0.94080 4415 ft 179 kts 115°
2026-05-06 15:07 42.54203 -0.92604 4501 ft 169 kts 108°
2026-05-06 15:08 42.53782 -0.91137 4520 ft 166 kts 107°
2026-05-06 15:08 42.53369 -0.89657 4485 ft 169 kts 106°
2026-05-06 15:08 42.52965 -0.88172 4493 ft 168 kts 106°
2026-05-06 15:08 42.52540 -0.86690 4501 ft 169 kts 109°
2026-05-06 15:09 42.52077 -0.85213 4506 ft 172 kts 109°
2026-05-06 15:09 42.51620 -0.83662 4292 ft 182 kts 109°
2026-05-06 15:09 42.51167 -0.82054 4192 ft 179 kts 107°
2026-05-06 15:09 42.50746 -0.80503 4272 ft 171 kts 107°
2026-05-06 15:10 42.50466 -0.79513 4343 ft 169 kts 107°
2026-05-06 15:10 42.50039 -0.78026 4387 ft 170 kts 107°
2026-05-06 15:10 42.49606 -0.76526 4407 ft 175 kts 108°
2026-05-06 15:10 42.49155 -0.74974 4282 ft 178 kts 111°
2026-05-06 15:11 42.48721 -0.73389 4073 ft 179 kts 110°
2026-05-06 15:11 42.48321 -0.71848 4066 ft 170 kts 109°
2026-05-06 15:11 42.47936 -0.70305 3932 ft 176 kts 109°
2026-05-06 15:11 42.47571 -0.68773 3863 ft 166 kts 105°
2026-05-06 15:12 42.47213 -0.67283 3828 ft 170 kts 110°
2026-05-06 15:12 42.46863 -0.65870 4018 ft 146 kts 109°
2026-05-06 15:12 42.46528 -0.64794 4699 ft 107 kts 114°
2026-05-06 15:12 42.46249 -0.63928 5120 ft 96 kts 115°
2026-05-06 15:13 42.45950 -0.63004 5272 ft 115 kts 113°
2026-05-06 15:13 42.45670 -0.61951 5476 ft 127 kts 105°
2026-05-06 15:13 42.45409 -0.60746 5595 ft 140 kts 106°
2026-05-06 15:13 42.45047 -0.59460 5694 ft 151 kts 111°
2026-05-06 15:14 42.44659 -0.58101 5740 ft 157 kts 109°
2026-05-06 15:14 42.44284 -0.56701 5801 ft 160 kts 108°
2026-05-06 15:14 42.43907 -0.55257 5792 ft 164 kts 107°
2026-05-06 15:14 42.43545 -0.53786 5739 ft 168 kts 104°
2026-05-06 15:15 42.43188 -0.52284 5737 ft 171 kts 106°
2026-05-06 15:15 42.42822 -0.50729 5665 ft 176 kts 105°
2026-05-06 15:15 42.42467 -0.49126 5620 ft 177 kts 105°
2026-05-06 15:15 42.42128 -0.47553 5639 ft 171 kts 104°
2026-05-06 15:16 42.41774 -0.46022 5623 ft 169 kts 107°
2026-05-06 15:16 42.41422 -0.44504 5597 ft 169 kts 104°
2026-05-06 15:16 42.41088 -0.42948 5542 ft 174 kts 105°
2026-05-06 15:16 42.40708 -0.41368 5389 ft 179 kts 107°
2026-05-06 15:17 42.40323 -0.39780 5317 ft 180 kts 105°
2026-05-06 15:17 42.39924 -0.38175 5237 ft 179 kts 107°
2026-05-06 15:17 42.39517 -0.36569 5082 ft 182 kts 108°
2026-05-06 15:17 42.39150 -0.34932 4926 ft 178 kts 102°
2026-05-06 15:18 42.38882 -0.33302 4874 ft 178 kts 100°
2026-05-06 15:18 42.38645 -0.31651 4736 ft 181 kts 95°
2026-05-06 15:18 42.38506 -0.29998 4740 ft 175 kts 90°
2026-05-06 15:18 42.38468 -0.28362 4722 ft 173 kts 85°
2026-05-06 15:19 42.38483 -0.26755 4729 ft 169 kts 83°
2026-05-06 15:19 42.38548 -0.25178 4683 ft 167 kts 81°
2026-05-06 15:19 42.38472 -0.23617 4678 ft 171 kts 97°
2026-05-06 15:19 42.38071 -0.22073 4698 ft 176 kts 114°
2026-05-06 15:20 42.37429 -0.20715 4892 ft 166 kts 126°
2026-05-06 15:20 42.36785 -0.19460 5109 ft 166 kts 120°
2026-05-06 15:20 42.36363 -0.17986 5136 ft 171 kts 103°
2026-05-06 15:20 42.36005 -0.16454 5120 ft 168 kts 98°
2026-05-06 15:21 42.35710 -0.14920 4850 ft 172 kts 104°
2026-05-06 15:21 42.35167 -0.13482 4689 ft 166 kts 115°
2026-05-06 15:21 42.34720 -0.12151 4611 ft 141 kts 100°
2026-05-06 15:21 42.34404 -0.11009 4995 ft 126 kts 109°
2026-05-06 15:22 42.34049 -0.09939 5263 ft 126 kts 109°
2026-05-06 15:22 42.33747 -0.08801 5468 ft 133 kts 107°
2026-05-06 15:22 42.33381 -0.07658 5809 ft 116 kts 115°
2026-05-06 15:22 42.32958 -0.06707 6092 ft 120 kts 121°
2026-05-06 15:23 42.32505 -0.05723 6265 ft 132 kts 117°
2026-05-06 15:23 42.32050 -0.04518 6302 ft 155 kts 113°
2026-05-06 15:23 42.31625 -0.03155 6359 ft 157 kts 110°
2026-05-06 15:23 42.31246 -0.02101 6983 ft 108 kts 115°
2026-05-06 15:24 42.30986 -0.01042 7100 ft 128 kts 103°
2026-05-06 15:24 42.30736 0.00186 7116 ft 143 kts 103°
2026-05-06 15:24 42.30475 0.01520 7179 ft 152 kts 104°
2026-05-06 15:24 42.30189 0.02938 7168 ft 158 kts 105°
2026-05-06 15:25 42.29845 0.04366 7163 ft 165 kts 110°
2026-05-06 15:25 42.29394 0.05832 7021 ft 174 kts 115°
2026-05-06 15:25 42.28947 0.07396 6678 ft 186 kts 105°
2026-05-06 15:25 42.28590 0.09088 6360 ft 187 kts 109°
2026-05-06 15:26 42.28134 0.10686 6261 ft 180 kts 114°
2026-05-06 15:26 42.27613 0.12197 6249 ft 175 kts 116°
2026-05-06 15:26 42.27109 0.13667 6295 ft 171 kts 114°
2026-05-06 15:26 42.26642 0.15121 6379 ft 168 kts 114°
2026-05-06 15:27 42.26178 0.16563 6269 ft 170 kts 115°
2026-05-06 15:27 42.25705 0.18010 6155 ft 157 kts 115°
2026-05-06 15:27 42.25325 0.19179 6023 ft 117 kts 114°
2026-05-06 15:27 42.24984 0.20143 6066 ft 121 kts 118°
2026-05-06 15:28 42.24608 0.21253 6047 ft 139 kts 115°
2026-05-06 15:28 42.24198 0.22560 5702 ft 168 kts 109°
2026-05-06 15:28 42.23789 0.24121 5398 ft 182 kts 109°
2026-05-06 15:28 42.23354 0.25759 5184 ft 179 kts 109°
2026-05-06 15:29 42.22980 0.27183 5713 ft 139 kts 111°
2026-05-06 15:29 42.22678 0.28466 5855 ft 144 kts 102°
2026-05-06 15:29 42.22426 0.29886 5507 ft 171 kts 105°
2026-05-06 15:29 42.22078 0.31479 5191 ft 180 kts 105°
2026-05-06 15:30 42.21740 0.33073 5096 ft 172 kts 104°
2026-05-06 15:30 42.21436 0.34587 5112 ft 165 kts 104°
2026-05-06 15:30 42.21174 0.36071 5174 ft 160 kts 102°
2026-05-06 15:30 42.20851 0.37497 5178 ft 160 kts 112°
2026-05-06 15:31 42.20464 0.38952 4966 ft 168 kts 109°
2026-05-06 15:31 42.20163 0.40481 4889 ft 166 kts 104°
2026-05-06 15:31 42.19924 0.41976 4956 ft 161 kts 104°
2026-05-06 15:32 42.19416 0.44973 4854 ft 171 kts 106°
2026-05-06 15:32 42.19119 0.46545 4650 ft 174 kts 106°
2026-05-06 15:32 42.18772 0.48134 4366 ft 178 kts 109°
2026-05-06 15:32 42.18481 0.49750 4218 ft 175 kts 105°
2026-05-06 15:33 42.18206 0.51250 4345 ft 159 kts 105°
2026-05-06 15:33 42.17993 0.52688 4456 ft 157 kts 103°
2026-05-06 15:33 42.17746 0.54127 4580 ft 156 kts 106°
2026-05-06 15:33 42.17470 0.55538 4692 ft 159 kts 107°
2026-05-06 15:34 42.17145 0.57001 4600 ft 167 kts 109°
2026-05-06 15:34 42.16824 0.58521 4503 ft 169 kts 107°
2026-05-06 15:34 42.16519 0.60051 4518 ft 168 kts 109°
2026-05-06 15:34 42.16190 0.61558 4553 ft 167 kts 109°
2026-05-06 15:35 42.15854 0.63049 4614 ft 168 kts 110°
2026-05-06 15:35 42.15482 0.64516 4674 ft 166 kts 113°
2026-05-06 15:35 42.15084 0.65975 4716 ft 165 kts 110°
2026-05-06 15:35 42.14728 0.67477 4537 ft 171 kts 111°
2026-05-06 15:36 42.14340 0.68957 4485 ft 167 kts 114°
2026-05-06 15:36 42.13914 0.70389 4632 ft 157 kts 121°
2026-05-06 15:36 42.13445 0.71652 4851 ft 149 kts 120°
2026-05-06 15:36 42.12999 0.72947 4880 ft 159 kts 115°
2026-05-06 15:37 42.12547 0.74347 4737 ft 169 kts 117°
2026-05-06 15:37 42.12048 0.75830 4630 ft 173 kts 118°
2026-05-06 15:37 42.11616 0.77263 4840 ft 159 kts 110°
2026-05-06 15:37 42.11354 0.78700 4981 ft 153 kts 105°
2026-05-06 15:38 42.11112 0.80061 5202 ft 148 kts 105°
2026-05-06 15:38 42.10868 0.81419 5348 ft 150 kts 108°
2026-05-06 15:38 42.10611 0.82779 5461 ft 154 kts 106°
2026-05-06 15:38 42.10315 0.84186 5567 ft 159 kts 108°
2026-05-06 15:39 42.09991 0.85619 5633 ft 162 kts 108°
2026-05-06 15:39 42.09649 0.87081 5561 ft 165 kts 110°
2026-05-06 15:39 42.09262 0.88531 5509 ft 165 kts 115°
2026-05-06 15:39 42.08833 0.89986 5409 ft 169 kts 115°
2026-05-06 15:40 42.08419 0.91478 5400 ft 169 kts 110°
2026-05-06 15:40 42.08119 0.93025 5349 ft 171 kts 102°
2026-05-06 15:40 42.07902 0.94591 5406 ft 170 kts 103°
2026-05-06 15:40 42.07654 0.96146 5349 ft 171 kts 105°
2026-05-06 15:41 42.07396 0.97700 5318 ft 174 kts 104°
2026-05-06 15:41 42.07129 0.99296 5135 ft 175 kts 104°
2026-05-06 15:41 42.06879 1.00880 5087 ft 172 kts 103°
2026-05-06 15:41 42.06665 1.02451 5076 ft 168 kts 102°
2026-05-06 15:42 42.06480 1.04004 5037 ft 168 kts 101°
2026-05-06 15:42 42.06221 1.05537 4964 ft 167 kts 110°
2026-05-06 15:42 42.05825 1.07006 4988 ft 165 kts 114°
2026-05-06 15:42 42.05398 1.08430 4945 ft 168 kts 116°
2026-05-06 15:43 42.04939 1.09888 4788 ft 167 kts 116°
2026-05-06 15:43 42.04492 1.11297 4629 ft 160 kts 118°
2026-05-06 15:43 42.04095 1.12717 4482 ft 161 kts 115°
2026-05-06 15:43 42.03702 1.14133 4473 ft 161 kts 115°
2026-05-06 15:44 42.03310 1.15543 4466 ft 161 kts 114°
2026-05-06 15:44 42.02913 1.16959 4347 ft 165 kts 114°
2026-05-06 15:44 42.02510 1.18402 4305 ft 166 kts 109°
2026-05-06 15:44 42.02179 1.19871 4312 ft 164 kts 109°
2026-05-06 15:45 42.01840 1.21339 4269 ft 164 kts 110°
2026-05-06 15:45 42.01498 1.22810 4196 ft 164 kts 112°
2026-05-06 15:45 42.01153 1.24300 4163 ft 167 kts 111°
2026-05-06 15:45 42.00790 1.25780 4131 ft 166 kts 115°
2026-05-06 15:46 42.00383 1.27195 4085 ft 164 kts 114°
2026-05-06 15:46 41.99985 1.28627 4090 ft 162 kts 111°
2026-05-06 15:46 41.99673 1.30115 4021 ft 166 kts 105°
2026-05-06 15:46 41.99428 1.31647 3984 ft 169 kts 105°
2026-05-06 15:47 41.99153 1.33181 3942 ft 169 kts 109°
2026-05-06 15:47 41.98822 1.34679 3930 ft 165 kts 118°
2026-05-06 15:47 41.98313 1.36029 3903 ft 161 kts 118°
2026-05-06 15:47 41.97871 1.37425 3908 ft 161 kts 117°
2026-05-06 15:48 41.97428 1.38792 3916 ft 159 kts 116°
2026-05-06 15:48 41.96985 1.40152 3894 ft 160 kts 117°
2026-05-06 15:48 41.96548 1.41563 3750 ft 164 kts 115°
2026-05-06 15:48 41.96185 1.42984 3812 ft 159 kts 114°
2026-05-06 15:49 41.95809 1.44389 3778 ft 159 kts 113°
2026-05-06 15:49 41.95443 1.45737 3780 ft 157 kts 114°
2026-05-06 15:49 41.95036 1.47068 3811 ft 149 kts 117°
2026-05-06 15:49 41.94771 1.48448 3844 ft 152 kts 98°
2026-05-06 15:50 41.94686 1.49864 3862 ft 155 kts 98°
2026-05-06 15:50 41.94604 1.51350 3812 ft 162 kts 98°
2026-05-06 15:50 41.94521 1.52885 3737 ft 169 kts 92°
2026-05-06 15:50 41.94424 1.54475 3617 ft 167 kts 98°
2026-05-06 15:51 41.94243 1.55947 3658 ft 153 kts 106°
2026-05-06 15:51 41.93841 1.57238 3764 ft 146 kts 123°
2026-05-06 15:51 41.93321 1.58450 3765 ft 153 kts 123°
2026-05-06 15:51 41.92853 1.59773 3669 ft 161 kts 114°
2026-05-06 15:52 41.92488 1.61263 3296 ft 173 kts 111°
2026-05-06 15:52 41.92058 1.62694 3326 ft 159 kts 118°
2026-05-06 15:52 41.91621 1.64029 3399 ft 154 kts 118°
2026-05-06 15:52 41.91182 1.65324 3486 ft 151 kts 116°
2026-05-06 15:53 41.90780 1.66640 3481 ft 153 kts 113°
2026-05-06 15:53 41.90483 1.68033 3493 ft 156 kts 103°
2026-05-06 15:53 41.90161 1.69397 3618 ft 151 kts 115°
2026-05-06 15:53 41.89727 1.70677 3650 ft 153 kts 117°
2026-05-06 15:54 41.89201 1.71975 3491 ft 162 kts 124°
2026-05-06 15:54 41.88620 1.73330 3314 ft 172 kts 119°
2026-05-06 15:54 41.88204 1.74810 3323 ft 164 kts 107°
2026-05-06 15:54 41.87993 1.76255 3412 ft 157 kts 101°
2026-05-06 15:55 41.87797 1.77702 3411 ft 157 kts 102°
2026-05-06 15:55 41.87613 1.79110 3561 ft 143 kts 100°
2026-05-06 15:55 41.87407 1.80388 3731 ft 143 kts 107°
2026-05-06 15:55 41.87131 1.81726 3788 ft 152 kts 107°
2026-05-06 15:56 41.86744 1.83167 3390 ft 170 kts 114°
2026-05-06 15:56 41.86301 1.84593 3420 ft 159 kts 116°
2026-05-06 15:56 41.85797 1.85871 3398 ft 154 kts 122°
2026-05-06 15:56 41.85223 1.87112 3289 ft 158 kts 122°
2026-05-06 15:57 41.84765 1.88404 3435 ft 149 kts 115°
2026-05-06 15:57 41.84376 1.89733 3400 ft 156 kts 112°
2026-05-06 15:57 41.84005 1.91130 3230 ft 162 kts 112°
2026-05-06 15:57 41.83643 1.92509 3301 ft 151 kts 114°
2026-05-06 15:58 41.83233 1.93781 3377 ft 148 kts 117°
2026-05-06 15:58 41.82811 1.95036 3382 ft 154 kts 115°
2026-05-06 15:58 41.82356 1.96336 3304 ft 156 kts 117°
2026-05-06 15:58 41.82074 1.97734 3294 ft 151 kts 105°
2026-05-06 15:59 41.81857 1.99020 3647 ft 130 kts 107°
2026-05-06 15:59 41.81657 2.00196 3891 ft 134 kts 105°
2026-05-06 15:59 41.81435 2.01458 3969 ft 142 kts 107°
2026-05-06 15:59 41.81216 2.02774 3981 ft 148 kts 105°
2026-05-06 16:00 41.81086 2.03709 3848 ft 155 kts 103°
2026-05-06 16:00 41.80915 2.05111 3631 ft 151 kts 102°
2026-05-06 16:00 41.80778 2.06470 3445 ft 143 kts 106°
2026-05-06 16:00 41.80553 2.07732 3311 ft 136 kts 110°
2026-05-06 16:01 41.80328 2.08905 3259 ft 122 kts 110°
2026-05-06 16:01 41.80149 2.09991 3067 ft 118 kts 104°
2026-05-06 16:01 41.80004 2.11037 2936 ft 114 kts 102°
2026-05-06 16:01 41.80222 2.11999 2898 ft 105 kts 56°
2026-05-06 16:02 41.80777 2.12489 2858 ft 90 kts
2026-05-06 16:02 41.81333 2.12400 2845 ft 73 kts 315°
2026-05-06 16:02 41.81416 2.11766 2753 ft 63 kts 254°
2026-05-06 16:02 41.81177 2.11443 2645 ft 49 kts 196°
2026-05-06 16:03 41.80816 2.11349 2512 ft 59 kts 185°
2026-05-06 16:03 41.80374 2.11279 2328 ft 66 kts 188°
2026-05-06 16:03 41.79972 2.11203 2243 ft 32 kts 187°
2026-05-06 16:03 41.79829 2.11174 2257 ft 13 kts 190°
2026-05-06 16:04 41.79796 2.11169 2258 ft 3 kts 10°
2026-05-06 16:04 41.79830 2.11175 2257 ft 9 kts
2026-05-06 16:04 41.79932 2.11192 2246 ft 18 kts
2026-05-06 16:04 41.80060 2.11219 2238 ft 18 kts
2026-05-06 16:05 41.80158 2.11237 2247 ft 8 kts
2026-05-06 16:05 41.80196 2.11243 2253 ft 8 kts
2026-05-06 16:05 41.80239 2.11228 2255 ft 5 kts 340°
2026-05-06 16:05 41.80243 2.11211 2255 ft 0 kts 282°
2026-05-06 16:06 41.80241 2.11209 2255 ft 0 kts 115°
2026-05-06 16:06 41.80241 2.11208 2255 ft 0 kts 115°